Time;durP1;ratioP1;P1;durP2;ratioP2;P2;SDS_P1;SDS_P2;PMS_P1;PMS_P2;Temp;Humidity;BMP_temperature;BMP_pressure;BME280_temperature;BME280_humidity;BME280_pressure;Samples;Min_cycle;Max_cycle;Signal;HPM_P1;HPM_P2
2023/06/20 18:10:08;;;;;;;10.82;8.68;;;25.50;99.90;;;;;;5092294;27;2209384;-84
2023/06/20 18:12:34;;;;;;;9.60;8.48;;;25.70;99.90;;;;;;5151857;27;20604;-86
2023/06/20 18:14:59;;;;;;;9.90;8.90;;;25.80;99.90;;;;;;5145006;27;20466;-85
2023/06/20 18:17:25;;;;;;;13.70;8.82;;;25.60;99.90;;;;;;5129931;27;20386;-87
2023/06/20 18:19:50;;;;;;;11.17;8.70;;;27.10;99.90;;;;;;5109002;28;20385;-86
2023/06/20 18:22:16;;;;;;;11.20;9.00;;;26.80;99.90;;;;;;5091536;28;20377;-84
2023/06/20 18:24:42;;;;;;;12.13;8.35;;;25.50;99.90;;;;;;5121410;27;20397;-83
2023/06/20 18:27:08;;;;;;;11.15;9.35;;;25.80;99.90;;;;;;5121847;28;20403;-84
2023/06/20 18:29:33;;;;;;;9.27;8.37;;;25.30;99.90;;;;;;5137047;27;20403;-84
2023/06/20 18:31:59;;;;;;;12.17;8.90;;;25.30;99.90;;;;;;5125774;27;20450;-86
2023/06/20 18:34:24;;;;;;;12.10;9.00;;;24.90;99.90;;;;;;5116328;28;20723;-86
2023/06/20 18:36:50;;;;;;;11.30;9.50;;;25.00;99.90;;;;;;5130538;27;20396;-86
2023/06/20 18:39:15;;;;;;;10.97;9.50;;;26.20;99.90;;;;;;5134993;28;20495;-85
2023/06/20 18:41:41;;;;;;;10.45;9.30;;;25.90;99.90;;;;;;5135727;27;20372;-86
2023/06/20 18:44:07;;;;;;;12.63;9.73;;;25.40;99.90;;;;;;5141771;27;20865;-85
2023/06/20 18:46:32;;;;;;;10.10;9.00;;;24.70;99.90;;;;;;5134880;28;20404;-86
2023/06/20 18:48:58;;;;;;;10.30;9.30;;;25.70;99.90;;;;;;5145504;27;20413;-86
2023/06/20 18:51:25;;;;;;;11.52;9.10;;;24.90;99.90;;;;;;5155762;27;20415;-86
2023/06/20 18:53:50;;;;;;;10.82;9.10;;;25.10;99.90;;;;;;5137823;27;20437;-85
2023/06/20 18:56:17;;;;;;;12.10;9.45;;;24.50;99.90;;;;;;5140605;27;20390;-85
2023/06/20 18:58:42;;;;;;;12.45;10.00;;;25.10;99.90;;;;;;5116520;28;20399;-86
2023/06/20 19:01:08;;;;;;;10.20;8.93;;;25.00;99.90;;;;;;5115815;28;20384;-86
2023/06/20 19:03:34;;;;;;;10.80;9.63;;;25.20;99.90;;;;;;5153174;27;20440;-86
2023/06/20 19:05:59;;;;;;;11.50;9.00;;;24.80;99.90;;;;;;5134384;28;20428;-86
2023/06/20 19:08:25;;;;;;;10.83;9.73;;;24.60;99.90;;;;;;5133528;27;20408;-86
2023/06/20 19:10:50;;;;;;;10.48;9.43;;;24.60;99.90;;;;;;5118564;27;20402;-84
2023/06/20 19:13:16;;;;;;;12.93;9.70;;;24.10;99.90;;;;;;5109589;28;20787;-86
2023/06/20 19:15:42;;;;;;;11.02;9.57;;;23.90;99.90;;;;;;5118063;28;20440;-86
2023/06/20 19:18:07;;;;;;;11.27;10.07;;;24.50;99.90;;;;;;5154342;27;20449;-86
2023/06/20 19:20:37;;;;;;;11.07;10.05;;;25.60;99.90;;;;;;5146203;27;20447;-86
2023/06/20 19:23:04;;;;;;;11.93;9.57;;;24.50;99.90;;;;;;5111495;28;20392;-86
2023/06/20 19:25:31;;;;;;;11.70;10.40;;;23.90;99.90;;;;;;5092205;28;20398;-86
2023/06/20 19:27:57;;;;;;;13.63;10.52;;;24.40;99.90;;;;;;5120656;27;20405;-86
2023/06/20 19:30:24;;;;;;;12.10;9.80;;;24.40;99.90;;;;;;5113798;28;20410;-86
2023/06/20 19:32:50;;;;;;;13.02;10.63;;;23.70;99.90;;;;;;5098717;27;20398;-86
2023/06/20 19:35:16;;;;;;;11.35;10.20;;;23.80;99.90;;;;;;5118672;27;20392;-86
2023/06/20 19:37:42;;;;;;;11.75;10.00;;;24.10;99.90;;;;;;5115864;27;21194;-84
2023/06/20 19:40:08;;;;;;;11.90;10.90;;;23.40;99.90;;;;;;5116869;28;20404;-84
2023/06/20 19:42:34;;;;;;;11.52;10.32;;;24.00;99.90;;;;;;5099642;28;20438;-84
2023/06/20 19:45:00;;;;;;;11.35;9.40;;;23.60;99.90;;;;;;5115487;27;21012;-83
2023/06/20 19:47:25;;;;;;;10.63;9.52;;;23.90;99.90;;;;;;5092377;28;20397;-84
2023/06/20 19:49:51;;;;;;;11.43;10.07;;;23.20;99.90;;;;;;5113940;28;20416;-85
2023/06/20 19:52:16;;;;;;;11.05;9.48;;;24.80;99.90;;;;;;5111084;28;20813;-88
2023/06/20 19:55:19;;;;;;;10.93;9.83;;;23.90;99.90;;;;;;5101088;22;20855;-92
2023/06/20 19:57:47;;;;;;;10.30;9.30;;;24.00;99.90;;;;;;5093557;28;20387;-83
2023/06/20 20:00:14;;;;;;;11.20;10.10;;;23.90;99.90;;;;;;5080433;28;20419;-83
2023/06/20 20:02:40;;;;;;;11.60;10.40;;;23.70;99.90;;;;;;5094515;28;20385;-83
2023/06/20 20:05:05;;;;;;;10.68;9.40;;;23.60;99.90;;;;;;5081636;28;20384;-83
2023/06/20 20:07:31;;;;;;;11.47;10.37;;;23.60;99.90;;;;;;5084109;28;20383;-84
2023/06/20 20:09:56;;;;;;;12.13;9.88;;;23.50;99.90;;;;;;5089877;28;20443;-84
2023/06/20 20:12:22;;;;;;;12.53;9.50;;;23.50;99.90;;;;;;5070925;28;20432;-84
2023/06/20 20:14:48;;;;;;;11.30;10.10;;;24.20;99.90;;;;;;5073281;28;20392;-84
2023/06/20 20:17:13;;;;;;;11.43;10.43;;;23.50;99.90;;;;;;5073448;28;20426;-83
2023/06/20 20:19:39;;;;;;;11.05;9.85;;;21.80;99.90;;;;;;5078339;28;20471;-85
2023/06/20 20:22:04;;;;;;;13.30;11.10;;;24.70;99.90;;;;;;5083176;28;20424;-84
2023/06/20 20:24:30;;;;;;;11.98;10.70;;;23.20;99.90;;;;;;5058766;28;20395;-84
2023/06/20 20:26:55;;;;;;;11.67;10.43;;;23.80;99.90;;;;;;5074410;28;20469;-84
2023/06/20 20:29:22;;;;;;;13.23;10.37;;;22.40;99.90;;;;;;5074143;28;20489;-84
2023/06/20 20:31:48;;;;;;;13.00;10.70;;;23.00;99.90;;;;;;5071733;28;20384;-84
2023/06/20 20:34:13;;;;;;;12.10;11.00;;;22.90;99.90;;;;;;5079178;28;20396;-84
2023/06/20 20:36:39;;;;;;;12.52;11.05;;;22.80;99.90;;;;;;5072754;28;20547;-83
2023/06/20 20:39:04;;;;;;;12.38;10.90;;;22.80;99.90;;;;;;5077371;28;20470;-82
2023/06/20 20:41:30;;;;;;;12.30;11.10;;;22.80;99.90;;;;;;5077732;28;20457;-82
2023/06/20 20:43:56;;;;;;;11.35;10.30;;;24.20;99.90;;;;;;5076022;28;20395;-81
2023/06/20 20:46:21;;;;;;;11.40;10.20;;;22.70;99.90;;;;;;5075266;28;20929;-82
2023/06/20 20:48:47;;;;;;;12.60;10.10;;;22.70;99.90;;;;;;5076372;28;20899;-82
2023/06/20 20:51:13;;;;;;;11.38;10.13;;;22.70;99.90;;;;;;5077257;28;20476;-83
2023/06/20 20:53:39;;;;;;;10.60;9.60;;;22.80;99.90;;;;;;5077544;28;20379;-83
2023/06/20 20:56:05;;;;;;;10.80;9.70;;;22.70;99.90;;;;;;5075218;28;20399;-83
2023/06/20 20:58:30;;;;;;;10.93;9.68;;;22.70;99.90;;;;;;5075894;28;20403;-83
2023/06/20 21:00:57;;;;;;;11.43;9.80;;;22.80;99.90;;;;;;5074660;28;20896;-83
2023/06/20 21:03:22;;;;;;;12.18;9.63;;;22.70;99.90;;;;;;5056861;28;20436;-83
2023/06/20 21:05:48;;;;;;;14.60;10.23;;;22.60;99.90;;;;;;5073432;28;20723;-82
2023/06/20 21:08:13;;;;;;;10.07;9.10;;;22.70;99.90;;;;;;5069899;28;20403;-83
2023/06/20 21:10:39;;;;;;;10.50;9.40;;;22.70;99.90;;;;;;5075564;28;20387;-83
2023/06/20 21:13:05;;;;;;;10.43;9.30;;;22.70;99.90;;;;;;5077388;28;20384;-82
2023/06/20 21:15:30;;;;;;;10.40;9.40;;;22.70;99.90;;;;;;5076341;28;20525;-83
2023/06/20 21:17:56;;;;;;;10.55;8.70;;;22.60;99.90;;;;;;5084560;28;20478;-82
2023/06/20 21:20:24;;;;;;;10.90;9.90;;;22.70;99.90;;;;;;5076756;28;20776;-82
2023/06/20 21:22:50;;;;;;;11.90;9.90;;;22.60;99.90;;;;;;5078337;28;20423;-81
2023/06/20 21:25:16;;;;;;;10.40;9.40;;;22.50;99.90;;;;;;5090770;28;20419;-82
2023/06/20 21:27:42;;;;;;;11.00;9.93;;;22.60;99.90;;;;;;5077827;28;20400;-82
2023/06/20 21:30:08;;;;;;;10.67;9.67;;;22.60;99.90;;;;;;5079386;28;20464;-82
2023/06/20 21:32:34;;;;;;;11.00;9.80;;;22.60;99.90;;;;;;5081081;28;20389;-81
2023/06/20 21:35:00;;;;;;;10.05;9.05;;;22.50;99.90;;;;;;5079843;28;20402;-82
2023/06/20 21:37:25;;;;;;;10.33;9.30;;;22.50;99.90;;;;;;5077787;28;20380;-82
2023/06/20 21:39:51;;;;;;;10.85;9.05;;;22.40;99.90;;;;;;5074965;28;20387;-82
2023/06/20 21:42:16;;;;;;;11.57;10.40;;;22.40;99.90;;;;;;5074124;28;20399;-83
2023/06/20 21:44:42;;;;;;;11.43;9.60;;;22.40;99.90;;;;;;5070250;28;20493;-83
2023/06/20 21:47:10;;;;;;;9.70;8.90;;;22.30;99.90;;;;;;5074842;28;20547;-82
2023/06/20 21:49:35;;;;;;;14.07;10.35;;;22.20;99.90;;;;;;5076962;28;20400;-82
2023/06/20 21:52:01;;;;;;;11.47;9.23;;;22.10;99.90;;;;;;5078960;28;20388;-83
2023/06/20 21:54:27;;;;;;;10.80;9.90;;;22.20;99.90;;;;;;5073181;28;20402;-83
2023/06/20 21:56:52;;;;;;;12.43;9.43;;;22.10;99.90;;;;;;5086154;28;20378;-83
2023/06/20 21:59:18;;;;;;;11.50;10.20;;;22.00;99.90;;;;;;5079118;28;20390;-83
2023/06/20 22:01:43;;;;;;;10.98;9.70;;;22.10;99.90;;;;;;5076598;28;20457;-82
2023/06/20 22:04:09;;;;;;;10.90;9.13;;;22.00;99.90;;;;;;5066941;28;20482;-84
2023/06/20 22:06:34;;;;;;;12.67;9.90;;;22.10;99.90;;;;;;5074041;28;20380;-84
2023/06/20 22:09:00;;;;;;;10.98;9.30;;;22.00;99.90;;;;;;5072856;28;20412;-85
2023/06/20 22:11:25;;;;;;;11.00;10.00;;;22.00;99.90;;;;;;5072892;28;20394;-83
2023/06/20 22:13:51;;;;;;;11.20;10.00;;;22.00;99.90;;;;;;5071282;28;20916;-83
2023/06/20 22:16:20;;;;;;;11.03;9.70;;;21.90;99.90;;;;;;5072305;28;20396;-83
2023/06/20 22:18:45;;;;;;;11.50;10.40;;;21.90;99.90;;;;;;5065412;28;20740;-83
2023/06/20 22:21:11;;;;;;;12.05;10.57;;;21.80;99.90;;;;;;5080122;28;20390;-83
2023/06/20 22:23:36;;;;;;;14.57;9.70;;;21.80;99.90;;;;;;5072538;28;20398;-83
2023/06/20 22:26:02;;;;;;;15.53;10.47;;;21.80;99.90;;;;;;5082098;28;21174;-84
2023/06/20 22:28:27;;;;;;;10.20;9.20;;;21.70;99.90;;;;;;5081191;28;20400;-84
2023/06/20 22:30:54;;;;;;;11.37;9.10;;;21.60;99.90;;;;;;5080616;28;20862;-83
2023/06/20 22:33:19;;;;;;;11.05;10.00;;;21.40;99.90;;;;;;5081409;28;20399;-84
2023/06/20 22:35:45;;;;;;;12.57;9.60;;;21.50;99.90;;;;;;5078163;28;20375;-83
2023/06/20 22:38:16;;;;;;;11.90;10.13;;;21.50;99.90;;;;;;5082177;28;20402;-83
2023/06/20 22:40:43;;;;;;;11.18;10.07;;;21.40;99.90;;;;;;5079457;28;20437;-84
2023/06/20 22:43:13;;;;;;;11.30;9.45;;;21.40;99.90;;;;;;5078651;28;20482;-83
2023/06/20 22:45:39;;;;;;;10.82;9.88;;;21.40;99.90;;;;;;5082599;28;21100;-83
2023/06/20 22:48:05;;;;;;;11.07;9.40;;;21.30;99.90;;;;;;5086534;28;20379;-83
2023/06/20 22:50:32;;;;;;;12.48;10.10;;;21.40;99.90;;;;;;5085309;28;20391;-84
2023/06/20 22:53:00;;;;;;;11.73;9.63;;;21.30;99.90;;;;;;5082051;28;20379;-83
2023/06/20 22:55:31;;;;;;;11.88;10.00;;;21.40;99.90;;;;;;5081735;28;20743;-83
2023/06/20 22:58:01;;;;;;;11.52;10.27;;;21.30;99.90;;;;;;5085227;28;20399;-84
2023/06/20 23:00:26;;;;;;;10.88;9.77;;;21.40;99.90;;;;;;5085395;28;20410;-84
2023/06/20 23:02:52;;;;;;;10.10;9.20;;;21.20;99.90;;;;;;5084216;28;20796;-83
2023/06/20 23:05:18;;;;;;;10.37;9.30;;;21.20;99.90;;;;;;5083321;28;20392;-83
2023/06/20 23:07:43;;;;;;;13.10;10.10;;;21.10;99.90;;;;;;5082546;28;20422;-83
2023/06/20 23:10:09;;;;;;;12.70;9.50;;;21.10;99.90;;;;;;5082218;28;20399;-84
2023/06/20 23:12:34;;;;;;;11.40;9.70;;;21.00;99.90;;;;;;5070104;28;20493;-84
2023/06/20 23:15:00;;;;;;;11.03;9.60;;;21.20;99.90;;;;;;5066514;28;20385;-82
2023/06/20 23:17:26;;;;;;;10.30;8.90;;;21.20;99.90;;;;;;5089969;28;20387;-83
2023/06/20 23:19:51;;;;;;;10.80;8.98;;;21.10;99.90;;;;;;5087805;28;20388;-83
2023/06/20 23:22:18;;;;;;;10.20;9.20;;;21.10;99.90;;;;;;5086151;28;20485;-83
2023/06/20 23:24:44;;;;;;;10.35;9.35;;;21.50;99.90;;;;;;5083873;28;20487;-84
2023/06/20 23:27:11;;;;;;;12.23;9.10;;;21.00;99.90;;;;;;5083108;28;20388;-84
2023/06/20 23:29:43;;;;;;;10.50;9.35;;;21.00;99.90;;;;;;5083596;28;20430;-83
2023/06/20 23:32:13;;;;;;;10.88;9.80;;;21.00;99.90;;;;;;5085122;28;20380;-84
2023/06/20 23:34:38;;;;;;;11.13;10.02;;;21.00;99.90;;;;;;5083357;28;20403;-83
2023/06/20 23:37:04;;;;;;;11.02;9.77;;;20.90;99.90;;;;;;5082572;28;20387;-83
2023/06/20 23:39:31;;;;;;;10.30;9.00;;;20.90;99.90;;;;;;5098747;28;20396;-83
2023/06/20 23:41:57;;;;;;;11.07;9.75;;;20.80;99.90;;;;;;5083874;28;20387;-84
2023/06/20 23:44:22;;;;;;;11.00;9.90;;;20.80;99.90;;;;;;5073853;28;20401;-83
2023/06/20 23:46:50;;;;;;;10.75;9.65;;;19.80;99.90;;;;;;5075594;28;20384;-83
2023/06/20 23:49:19;;;;;;;10.43;9.32;;;20.80;99.90;;;;;;5081091;28;20471;-83
2023/06/20 23:51:45;;;;;;;12.02;9.68;;;20.80;99.90;;;;;;5080221;28;20467;-83
2023/06/20 23:54:11;;;;;;;10.02;9.13;;;20.70;99.90;;;;;;5082015;28;20391;-83
2023/06/20 23:56:38;;;;;;;11.35;9.68;;;20.70;99.90;;;;;;5080865;28;20372;-83
2023/06/20 23:59:04;;;;;;;9.88;8.98;;;20.70;99.90;;;;;;5066267;28;20459;-83
